Terminal Aerodrome Forecast
Issued by NWS

Home | Current Version | Previous Version | Graphics & Text | Print | Product List | Glossary On
Versions: 1 2 3 4 5 6 7 8 9 10 11 12 13 14 15 16 17 18 19 20 21
000
FTUS43 KICT 180600 AAA
TAFRSL
TAF AMD
KRSL 180654Z 1807/1906 08010KT P6SM VCTS BKN030CB
      TEMPO 1807/1811 4SM BR OVC006
     FM181100 10008KT 2SM BR OVC005
     FM181600 12008KT P6SM BKN015
     FM181900 13011KT P6SM FEW040
     FM190100 14009KT P6SM SCT150=

USA.gov is the U.S. government's official web portal to all federal, state and local government web resources and services.